Terminal Aerodrome Forecast
Issued by NWS Lake Charles, LA

Home | Current Version | Previous Version | Text Only | Print | Product List | Glossary On
Versions: 1 2 3 4 5 6 7 8 9 10 11 12 13 14 15 16 17 18 19 20 21 22 23
000
FTUS44 KLCH 011133
TAFBPT
TAF
KBPT 011133Z 0112/0212 VRB05KT 6SM BR VCTS SCT008 OVC025CB
      TEMPO 0112/0116 VRB10G25KT 1SM +TSRA OVC007CB
     FM011600 13008KT P6SM VCTS SCT020CB BKN035
      TEMPO 0116/0120 2SM TSRA OVC015CB
     FM020100 13006KT P6SM VCSH BKN015 PROB30 0206/0212 2SM SHRA
      BKN007=

USA.gov is the U.S. government's official web portal to all federal, state and local government web resources and services.